Time;durP1;ratioP1;P1;durP2;ratioP2;P2;SDS_P1;SDS_P2;PMS_P1;PMS_P2;Temp;Humidity;BMP_temperature;BMP_pressure;BME280_temperature;BME280_humidity;BME280_pressure;Samples;Min_cycle;Max_cycle;Signal;HPM_P1;HPM_P2
2023/06/03 00:00:55;;;;;;;3.13;0.70;;;;;;;;;;5008932;28;20075;-82
2023/06/03 00:03:22;;;;;;;1.52;0.82;;;;;;;;;;5013826;28;20058;-80
2023/06/03 00:05:53;;;;;;;3.08;0.90;;;;;;;;;;5011868;28;20234;-82
2023/06/03 00:08:20;;;;;;;5.63;0.98;;;;;;;;;;5013599;28;20048;-81
2023/06/03 00:10:49;;;;;;;1.88;0.75;;;;;;;;;;4992649;28;20042;-80
2023/06/03 00:13:16;;;;;;;4.10;1.10;;;;;;;;;;5008950;28;20053;-81
2023/06/03 00:15:43;;;;;;;2.35;0.70;;;;;;;;;;4992790;28;20038;-80
2023/06/03 00:18:09;;;;;;;3.33;0.73;;;;;;;;;;5008955;28;20123;-81
2023/06/03 00:20:36;;;;;;;4.00;0.77;;;;;;;;;;4993577;28;20116;-81
2023/06/03 00:23:05;;;;;;;5.97;0.90;;;;;;;;;;5010175;28;20121;-80
2023/06/03 00:25:32;;;;;;;3.08;1.00;;;;;;;;;;4996748;28;20050;-81
2023/06/03 00:27:59;;;;;;;1.35;0.82;;;;;;;;;;5013069;28;20053;-81
2023/06/03 00:30:25;;;;;;;3.30;0.90;;;;;;;;;;4997327;28;20053;-81
2023/06/03 00:32:52;;;;;;;3.70;0.80;;;;;;;;;;5014573;28;20054;-80
2023/06/03 00:35:19;;;;;;;5.45;0.80;;;;;;;;;;5013598;28;20523;-81
2023/06/03 00:37:45;;;;;;;2.95;0.80;;;;;;;;;;5013905;28;20514;-80
2023/06/03 00:40:12;;;;;;;7.30;0.90;;;;;;;;;;4997586;28;20050;-79
2023/06/03 00:42:39;;;;;;;7.63;0.85;;;;;;;;;;4999668;28;20538;-81
2023/06/03 00:45:06;;;;;;;2.67;0.77;;;;;;;;;;5013943;28;20061;-82
2023/06/03 00:47:32;;;;;;;4.22;0.80;;;;;;;;;;5013740;28;20204;-82
2023/06/03 00:49:59;;;;;;;1.70;0.70;;;;;;;;;;4997313;28;20525;-81
2023/06/03 00:52:29;;;;;;;2.10;0.80;;;;;;;;;;4998146;28;20045;-81
2023/06/03 00:54:56;;;;;;;2.65;0.85;;;;;;;;;;4997368;28;20046;-81
2023/06/03 00:57:23;;;;;;;1.95;0.85;;;;;;;;;;5002898;28;20059;-80
2023/06/03 00:59:50;;;;;;;5.53;0.98;;;;;;;;;;5012268;28;20133;-81
2023/06/03 01:02:17;;;;;;;4.93;0.88;;;;;;;;;;4995564;28;20050;-79
2023/06/03 01:04:45;;;;;;;5.80;1.08;;;;;;;;;;5011121;28;20093;-80
2023/06/03 01:07:15;;;;;;;4.75;0.80;;;;;;;;;;5011981;28;20057;-80
2023/06/03 01:09:58;;;;;;;5.65;1.20;;;;;;;;;;5032169;28;20037;-82
2023/06/03 01:12:25;;;;;;;2.42;0.80;;;;;;;;;;5049773;28;20049;-82
2023/06/03 01:15:06;;;;;;;5.80;1.10;;;;;;;;;;5035065;28;20064;-82
2023/06/03 01:17:39;;;;;;;2.13;0.85;;;;;;;;;;5033736;28;20045;-82
2023/06/03 01:20:10;;;;;;;5.97;1.02;;;;;;;;;;5033515;28;20620;-82
2023/06/03 01:22:40;;;;;;;1.83;0.82;;;;;;;;;;5032692;28;20140;-81
2023/06/03 01:25:15;;;;;;;2.33;0.80;;;;;;;;;;5033540;28;20402;-79
2023/06/03 01:27:45;;;;;;;3.47;1.00;;;;;;;;;;5033464;28;20111;-81
2023/06/03 01:30:13;;;;;;;4.53;0.90;;;;;;;;;;5030740;28;20072;-80
2023/06/03 01:32:41;;;;;;;2.45;0.70;;;;;;;;;;5030213;28;20044;-79
2023/06/03 01:35:09;;;;;;;3.58;1.10;;;;;;;;;;5030616;28;20045;-82
2023/06/03 01:37:36;;;;;;;8.05;1.05;;;;;;;;;;5031450;28;20083;-81
2023/06/03 01:40:04;;;;;;;3.03;1.00;;;;;;;;;;5015084;28;20778;-81
2023/06/03 01:42:34;;;;;;;2.08;0.82;;;;;;;;;;5030477;28;20109;-81
2023/06/03 01:45:01;;;;;;;2.03;0.98;;;;;;;;;;5030511;28;20053;-81
2023/06/03 01:47:28;;;;;;;2.92;1.10;;;;;;;;;;5029413;28;20045;-79
2023/06/03 01:49:55;;;;;;;2.38;0.77;;;;;;;;;;5030767;28;20099;-79
2023/06/03 01:52:21;;;;;;;1.83;0.70;;;;;;;;;;5030597;28;20053;-79
2023/06/03 01:54:48;;;;;;;3.20;1.10;;;;;;;;;;5030560;28;20071;-80
2023/06/03 01:57:16;;;;;;;5.80;1.00;;;;;;;;;;5030006;28;20053;-82
2023/06/03 01:59:43;;;;;;;3.20;1.10;;;;;;;;;;5015306;28;20038;-81
2023/06/03 02:02:09;;;;;;;4.15;1.15;;;;;;;;;;4995792;28;20070;-80
2023/06/03 02:04:36;;;;;;;5.43;1.00;;;;;;;;;;5014998;28;20041;-80
2023/06/03 02:07:03;;;;;;;2.03;0.85;;;;;;;;;;5012458;28;20089;-80
2023/06/03 02:09:31;;;;;;;2.20;1.00;;;;;;;;;;5001391;28;20053;-81
2023/06/03 02:11:59;;;;;;;6.20;1.05;;;;;;;;;;4995124;28;20041;-79
2023/06/03 02:14:30;;;;;;;2.25;1.00;;;;;;;;;;4992442;28;20578;-80
2023/06/03 02:16:56;;;;;;;2.90;1.00;;;;;;;;;;4993986;28;20054;-81
2023/06/03 02:19:27;;;;;;;4.15;1.10;;;;;;;;;;4993203;28;20049;-81
2023/06/03 02:21:57;;;;;;;4.65;1.20;;;;;;;;;;4991452;28;20062;-81
2023/06/03 02:24:23;;;;;;;2.83;0.90;;;;;;;;;;4991916;28;20050;-83
2023/06/03 02:26:50;;;;;;;3.15;0.90;;;;;;;;;;4992339;28;20384;-81
2023/06/03 02:29:20;;;;;;;4.40;1.05;;;;;;;;;;4984553;28;20455;-81
2023/06/03 02:31:46;;;;;;;5.85;1.00;;;;;;;;;;4972827;28;20086;-80
2023/06/03 02:34:13;;;;;;;3.95;1.30;;;;;;;;;;4991924;28;20137;-83
2023/06/03 02:36:40;;;;;;;2.60;0.98;;;;;;;;;;4991528;28;20046;-80
2023/06/03 02:39:07;;;;;;;3.80;0.93;;;;;;;;;;4998676;28;20046;-80
2023/06/03 02:41:33;;;;;;;1.95;0.90;;;;;;;;;;5004208;28;20121;-82
2023/06/03 02:44:01;;;;;;;3.63;1.10;;;;;;;;;;4992911;28;20706;-82
2023/06/03 02:46:27;;;;;;;3.90;1.05;;;;;;;;;;4991033;28;20038;-82
2023/06/03 02:48:54;;;;;;;1.60;0.90;;;;;;;;;;4990917;28;20492;-83
2023/06/03 02:51:21;;;;;;;4.40;0.82;;;;;;;;;;4991173;28;20054;-81
2023/06/03 02:53:48;;;;;;;3.50;1.00;;;;;;;;;;4975030;28;20038;-81
2023/06/03 02:56:15;;;;;;;4.70;0.80;;;;;;;;;;4977025;28;20065;-82
2023/06/03 02:58:42;;;;;;;1.83;1.05;;;;;;;;;;4993116;28;20054;-80
2023/06/03 03:01:08;;;;;;;3.00;0.95;;;;;;;;;;5009892;28;20071;-81
2023/06/03 03:03:40;;;;;;;2.70;1.05;;;;;;;;;;4993135;28;20046;-81
2023/06/03 03:06:08;;;;;;;3.25;0.98;;;;;;;;;;4993528;28;20046;-82
2023/06/03 03:08:35;;;;;;;3.80;1.30;;;;;;;;;;5011091;28;20414;-82
2023/06/03 03:11:01;;;;;;;4.43;1.02;;;;;;;;;;5009912;28;20049;-83
2023/06/03 03:13:29;;;;;;;2.08;1.05;;;;;;;;;;4992441;28;20049;-81
2023/06/03 03:15:56;;;;;;;5.88;1.33;;;;;;;;;;4975621;28;20049;-79
2023/06/03 03:18:26;;;;;;;5.63;1.45;;;;;;;;;;5009243;28;20062;-81
2023/06/03 03:20:52;;;;;;;2.20;1.13;;;;;;;;;;5009587;28;20131;-80
2023/06/03 03:23:20;;;;;;;1.92;1.20;;;;;;;;;;5008312;28;20045;-82
2023/06/03 03:25:46;;;;;;;3.88;1.17;;;;;;;;;;4990710;28;20042;-82
2023/06/03 03:28:13;;;;;;;4.18;1.50;;;;;;;;;;5007732;28;20066;-81
2023/06/03 03:30:43;;;;;;;4.65;1.20;;;;;;;;;;4990960;28;20131;-80
2023/06/03 03:33:09;;;;;;;4.10;0.93;;;;;;;;;;5001331;28;20152;-80
2023/06/03 03:35:40;;;;;;;5.00;1.70;;;;;;;;;;5008344;28;20044;-80
2023/06/03 03:38:07;;;;;;;6.97;1.17;;;;;;;;;;5008271;28;20057;-79
2023/06/03 03:40:36;;;;;;;2.67;1.15;;;;;;;;;;5009451;28;20467;-81
2023/06/03 03:43:03;;;;;;;2.80;1.27;;;;;;;;;;5010191;28;20140;-80
2023/06/03 03:45:35;;;;;;;5.07;1.20;;;;;;;;;;5009203;28;20045;-81
2023/06/03 03:48:20;;;;;;;1.83;1.00;;;;;;;;;;4992563;28;20042;-82
2023/06/03 03:50:51;;;;;;;5.18;1.30;;;;;;;;;;5009384;28;20153;-82
2023/06/03 03:53:28;;;;;;;2.25;1.13;;;;;;;;;;5005471;28;20136;-81
2023/06/03 03:55:57;;;;;;;3.92;1.05;;;;;;;;;;5007661;28;20058;-80
2023/06/03 03:58:31;;;;;;;4.93;1.30;;;;;;;;;;5025841;28;20042;-80
2023/06/03 04:01:00;;;;;;;7.88;1.27;;;;;;;;;;5029081;28;20050;-81
2023/06/03 04:03:35;;;;;;;3.13;1.30;;;;;;;;;;5012737;28;20038;-80
2023/06/03 04:06:04;;;;;;;4.80;1.13;;;;;;;;;;5027723;28;20052;-81
2023/06/03 04:08:38;;;;;;;2.08;1.02;;;;;;;;;;5028403;28;20042;-80
2023/06/03 04:11:09;;;;;;;3.40;1.40;;;;;;;;;;5025105;28;20108;-82
2023/06/03 04:13:36;;;;;;;2.50;1.00;;;;;;;;;;5024832;28;20061;-82
2023/06/03 04:16:07;;;;;;;4.07;1.33;;;;;;;;;;5024450;28;20105;-82
2023/06/03 04:18:37;;;;;;;2.42;1.23;;;;;;;;;;5023210;28;20042;-82
2023/06/03 04:21:05;;;;;;;4.00;1.17;;;;;;;;;;5026272;28;20127;-80
2023/06/03 04:23:32;;;;;;;3.28;1.20;;;;;;;;;;5010495;28;20046;-79
2023/06/03 04:25:59;;;;;;;4.40;1.05;;;;;;;;;;5025392;28;20042;-83
2023/06/03 04:28:26;;;;;;;4.47;1.17;;;;;;;;;;5025393;28;20046;-80
2023/06/03 04:30:53;;;;;;;2.92;1.35;;;;;;;;;;5028772;28;20241;-80
2023/06/03 04:33:20;;;;;;;4.30;1.27;;;;;;;;;;5028679;28;20044;-80
2023/06/03 04:35:47;;;;;;;6.53;1.30;;;;;;;;;;5025375;28;20065;-81
2023/06/03 04:38:14;;;;;;;2.13;1.10;;;;;;;;;;5024528;28;20045;-81
2023/06/03 04:40:45;;;;;;;2.78;1.40;;;;;;;;;;5024869;28;20068;-80
2023/06/03 04:43:15;;;;;;;4.80;1.30;;;;;;;;;;5030672;28;20045;-80
2023/06/03 04:45:44;;;;;;;3.53;1.58;;;;;;;;;;5029550;28;20041;-80
2023/06/03 04:48:12;;;;;;;4.28;1.23;;;;;;;;;;5028023;28;20060;-80
2023/06/03 04:50:38;;;;;;;3.70;1.33;;;;;;;;;;5028203;28;20046;-81
2023/06/03 04:53:07;;;;;;;5.18;1.55;;;;;;;;;;5026980;28;20037;-80
2023/06/03 04:55:34;;;;;;;5.97;1.60;;;;;;;;;;5029539;28;20073;-80
2023/06/03 04:58:02;;;;;;;5.15;1.40;;;;;;;;;;5027032;28;20049;-81
2023/06/03 05:00:32;;;;;;;3.60;1.40;;;;;;;;;;5025688;28;20045;-81
2023/06/03 05:03:08;;;;;;;4.57;1.67;;;;;;;;;;5023900;28;20042;-81
2023/06/03 05:05:43;;;;;;;8.25;1.90;;;;;;;;;;5024405;28;20076;-82
2023/06/03 05:08:12;;;;;;;;;;;;;;;;;;5023647;28;20046;-82
2023/06/03 05:10:39;;;;;;;5.28;1.70;;;;;;;;;;5005734;28;19921;-81
2023/06/03 05:13:06;;;;;;;4.50;1.60;;;;;;;;;;5024743;28;20042;-81
2023/06/03 05:15:34;;;;;;;6.75;1.98;;;;;;;;;;5012061;28;20038;-82
2023/06/03 05:18:02;;;;;;;3.90;1.73;;;;;;;;;;5026603;28;20037;-82
2023/06/03 05:20:31;;;;;;;5.05;2.00;;;;;;;;;;5024970;28;20508;-81
2023/06/03 05:22:58;;;;;;;6.85;1.85;;;;;;;;;;5022681;28;20173;-83
2023/06/03 05:25:25;;;;;;;9.15;2.10;;;;;;;;;;5006568;28;20069;-81
2023/06/03 05:27:52;;;;;;;7.30;1.80;;;;;;;;;;5023211;28;20050;-83
2023/06/03 05:30:31;;;;;;;5.15;1.88;;;;;;;;;;5020233;28;20125;-80
2023/06/03 05:32:57;;;;;;;5.25;1.58;;;;;;;;;;5026216;28;20058;-80
2023/06/03 05:35:24;;;;;;;6.60;2.13;;;;;;;;;;5027107;28;20144;-81
2023/06/03 05:37:51;;;;;;;5.90;1.42;;;;;;;;;;5027049;28;20109;-82
2023/06/03 05:40:18;;;;;;;4.03;1.50;;;;;;;;;;5004670;28;20057;-81
2023/06/03 05:42:47;;;;;;;4.97;1.50;;;;;;;;;;5005972;28;20046;-82
2023/06/03 05:45:16;;;;;;;5.13;1.98;;;;;;;;;;5021713;28;20461;-84
2023/06/03 05:47:43;;;;;;;6.40;1.80;;;;;;;;;;5017629;28;20046;-84
2023/06/03 05:50:09;;;;;;;3.60;1.80;;;;;;;;;;5016168;28;20049;-84
2023/06/03 05:52:36;;;;;;;7.72;2.30;;;;;;;;;;5019758;28;20046;-86
2023/06/03 05:55:11;;;;;;;6.65;2.08;;;;;;;;;;5017404;28;20046;-85
2023/06/03 05:57:42;;;;;;;5.38;1.90;;;;;;;;;;5019604;28;20038;-83
2023/06/03 06:00:09;;;;;;;5.38;1.55;;;;;;;;;;5018974;28;20049;-83
2023/06/03 06:02:39;;;;;;;6.20;1.92;;;;;;;;;;5020372;28;20050;-82
2023/06/03 06:05:07;;;;;;;5.32;1.60;;;;;;;;;;5001220;28;20809;-84
2023/06/03 06:07:34;;;;;;;4.35;2.03;;;;;;;;;;5000410;28;20495;-83
2023/06/03 06:10:00;;;;;;;4.82;1.90;;;;;;;;;;5000110;28;20046;-83
2023/06/03 06:12:27;;;;;;;4.93;2.38;;;;;;;;;;4997871;28;20038;-85
2023/06/03 06:14:55;;;;;;;5.45;2.28;;;;;;;;;;5000124;28;20057;-83
2023/06/03 06:17:24;;;;;;;4.50;2.08;;;;;;;;;;4993964;28;20050;-82
2023/06/03 06:19:51;;;;;;;8.73;2.10;;;;;;;;;;4993423;28;20057;-84
2023/06/03 06:22:18;;;;;;;4.55;1.98;;;;;;;;;;5005960;28;20042;-83
2023/06/03 06:24:45;;;;;;;5.57;2.40;;;;;;;;;;5006570;28;20046;-83
2023/06/03 06:27:12;;;;;;;4.07;1.98;;;;;;;;;;5003976;28;20120;-80
2023/06/03 06:29:40;;;;;;;5.63;2.35;;;;;;;;;;4992186;28;20072;-81
2023/06/03 06:32:09;;;;;;;4.05;1.90;;;;;;;;;;4992983;28;20049;-86
2023/06/03 06:35:04;;;;;;;7.90;2.53;;;;;;;;;;4986858;28;20048;-84
2023/06/03 06:37:39;;;;;;;6.03;2.10;;;;;;;;;;4992441;28;20088;-82
2023/06/03 06:40:07;;;;;;;8.55;3.15;;;;;;;;;;4983938;28;20050;-81
2023/06/03 06:42:41;;;;;;;10.25;2.42;;;;;;;;;;4990399;28;20132;-82
2023/06/03 06:45:15;;;;;;;10.18;2.58;;;;;;;;;;5003539;28;20424;-82
2023/06/03 06:47:45;;;;;;;9.35;2.65;;;;;;;;;;5005772;28;20095;-81
2023/06/03 06:50:38;;;;;;;8.80;2.53;;;;;;;;;;4990131;28;20048;-82
2023/06/03 06:53:06;;;;;;;8.95;2.40;;;;;;;;;;4968218;28;20050;-82
2023/06/03 06:55:42;;;;;;;10.20;2.65;;;;;;;;;;5009866;28;20060;-83
2023/06/03 06:58:13;;;;;;;6.75;2.28;;;;;;;;;;5000544;28;20045;-85
2023/06/03 07:00:39;;;;;;;5.05;2.20;;;;;;;;;;5010746;28;20058;-83
2023/06/03 07:03:10;;;;;;;4.85;2.25;;;;;;;;;;5017535;28;20110;-81
2023/06/03 07:05:37;;;;;;;7.97;1.90;;;;;;;;;;5001456;28;20045;-85
2023/06/03 07:08:04;;;;;;;4.82;1.90;;;;;;;;;;4992736;28;20052;-81
2023/06/03 07:10:31;;;;;;;8.60;2.30;;;;;;;;;;5014367;28;20161;-84
2023/06/03 07:13:07;;;;;;;5.05;2.10;;;;;;;;;;5011114;28;20129;-82
2023/06/03 07:15:37;;;;;;;7.07;2.30;;;;;;;;;;4980616;28;20131;-83
2023/06/03 07:18:04;;;;;;;7.38;2.20;;;;;;;;;;5011510;28;20123;-81
2023/06/03 07:20:34;;;;;;;6.85;1.75;;;;;;;;;;4999189;28;20081;-82
2023/06/03 07:23:07;;;;;;;6.20;2.13;;;;;;;;;;5022810;28;20186;-82
2023/06/03 07:25:33;;;;;;;4.22;1.80;;;;;;;;;;5004075;28;20065;-81
2023/06/03 07:28:05;;;;;;;6.15;1.80;;;;;;;;;;5018424;28;20053;-79
2023/06/03 07:30:34;;;;;;;8.02;1.92;;;;;;;;;;5018265;28;20038;-81
2023/06/03 07:33:03;;;;;;;3.17;1.67;;;;;;;;;;5012006;28;20038;-77
2023/06/03 07:35:30;;;;;;;5.13;1.60;;;;;;;;;;4996827;28;20062;-79
2023/06/03 07:37:56;;;;;;;6.38;1.48;;;;;;;;;;5013160;28;20121;-82
2023/06/03 07:40:31;;;;;;;9.00;1.95;;;;;;;;;;5000803;28;20053;-79
2023/06/03 07:42:57;;;;;;;4.32;1.85;;;;;;;;;;5013194;28;20501;-80
2023/06/03 07:45:25;;;;;;;6.20;1.50;;;;;;;;;;5015134;28;20110;-80
2023/06/03 07:47:56;;;;;;;3.72;1.58;;;;;;;;;;5015930;28;20050;-80
2023/06/03 07:50:23;;;;;;;4.30;1.33;;;;;;;;;;5015619;28;20053;-79
2023/06/03 07:53:04;;;;;;;2.85;1.23;;;;;;;;;;5013066;28;20064;-80
2023/06/03 07:55:38;;;;;;;5.18;1.50;;;;;;;;;;5015050;28;20042;-81
2023/06/03 07:58:05;;;;;;;6.22;1.13;;;;;;;;;;4999117;28;20046;-80
2023/06/03 08:00:32;;;;;;;6.00;1.85;;;;;;;;;;5011919;28;20351;-81
2023/06/03 08:03:00;;;;;;;4.38;1.20;;;;;;;;;;5010417;28;20038;-81
2023/06/03 08:05:50;;;;;;;16.85;1.85;;;;;;;;;;5013901;28;20042;-81
2023/06/03 08:08:18;;;;;;;4.97;1.55;;;;;;;;;;5012247;28;20064;-81
2023/06/03 08:10:47;;;;;;;5.90;3.45;;;;;;;;;;5032159;28;20042;-81
2023/06/03 08:13:16;;;;;;;6.10;1.63;;;;;;;;;;5034652;28;20061;-79
2023/06/03 08:15:43;;;;;;;4.85;1.40;;;;;;;;;;5038494;28;20119;-81
2023/06/03 08:18:13;;;;;;;8.30;1.35;;;;;;;;;;5034080;28;20111;-80
2023/06/03 08:20:39;;;;;;;9.98;1.40;;;;;;;;;;5034579;28;20056;-81
2023/06/03 08:23:06;;;;;;;2.88;1.08;;;;;;;;;;5032341;28;20049;-80
2023/06/03 08:25:32;;;;;;;7.45;1.10;;;;;;;;;;5033234;28;20038;-82
2023/06/03 08:28:00;;;;;;;8.35;1.40;;;;;;;;;;5033550;28;20095;-78
2023/06/03 08:30:27;;;;;;;7.30;1.20;;;;;;;;;;5038390;28;20051;-78
2023/06/03 08:32:55;;;;;;;7.03;1.33;;;;;;;;;;5039417;28;20114;-79
2023/06/03 08:35:22;;;;;;;5.07;1.50;;;;;;;;;;5041623;28;20099;-80
2023/06/03 08:37:49;;;;;;;5.40;1.48;;;;;;;;;;5032600;28;20589;-79
2023/06/03 08:40:17;;;;;;;8.68;1.30;;;;;;;;;;5032283;28;20172;-80
2023/06/03 08:42:47;;;;;;;3.08;1.30;;;;;;;;;;5010098;28;20038;-83
2023/06/03 08:45:18;;;;;;;5.07;1.30;;;;;;;;;;5009741;28;20425;-81
2023/06/03 08:48:07;;;;;;;4.90;1.05;;;;;;;;;;5012154;28;20072;-80
2023/06/03 08:50:34;;;;;;;8.50;1.75;;;;;;;;;;5013464;28;20502;-81
2023/06/03 08:53:08;;;;;;;6.88;1.00;;;;;;;;;;5014466;28;20054;-81
2023/06/03 08:55:36;;;;;;;3.20;1.15;;;;;;;;;;4995349;28;20284;-81
2023/06/03 08:58:03;;;;;;;6.40;1.10;;;;;;;;;;5003218;28;20045;-81
2023/06/03 09:00:30;;;;;;;3.50;1.00;;;;;;;;;;5011593;28;20053;-81
2023/06/03 09:02:57;;;;;;;7.35;1.58;;;;;;;;;;5014690;28;20070;-82
2023/06/03 09:05:25;;;;;;;6.32;1.10;;;;;;;;;;5013884;28;20065;-79
2023/06/03 09:07:52;;;;;;;3.88;0.98;;;;;;;;;;5014411;28;21552;-81
2023/06/03 09:10:25;;;;;;;11.23;1.17;;;;;;;;;;5016276;28;20275;-78
2023/06/03 09:12:56;;;;;;;1.52;0.82;;;;;;;;;;5018243;28;20049;-81
2023/06/03 09:15:26;;;;;;;7.18;1.40;;;;;;;;;;5026422;28;20057;-80
2023/06/03 09:17:55;;;;;;;2.63;1.10;;;;;;;;;;5026666;28;20101;-80
2023/06/03 09:20:23;;;;;;;5.32;1.33;;;;;;;;;;5013951;28;20046;-80
2023/06/03 09:22:50;;;;;;;5.28;1.05;;;;;;;;;;5024721;28;20037;-79
2023/06/03 09:25:17;;;;;;;3.58;1.20;;;;;;;;;;5012661;28;20145;-80
2023/06/03 09:27:44;;;;;;;2.10;0.77;;;;;;;;;;4998743;28;20069;-81
2023/06/03 09:30:10;;;;;;;7.70;1.00;;;;;;;;;;5016927;28;20144;-79
2023/06/03 09:32:37;;;;;;;11.02;1.10;;;;;;;;;;5013186;28;20081;-78
2023/06/03 09:35:04;;;;;;;6.97;1.00;;;;;;;;;;5010028;28;20469;-70
2023/06/03 09:37:31;;;;;;;6.38;1.45;;;;;;;;;;5012358;28;20042;-82
2023/06/03 09:39:59;;;;;;;3.55;0.82;;;;;;;;;;5010280;28;20041;-80
2023/06/03 09:42:41;;;;;;;2.90;0.80;;;;;;;;;;5012478;28;20600;-81
2023/06/03 09:45:21;;;;;;;2.08;0.90;;;;;;;;;;5031614;28;20053;-81
2023/06/03 09:47:49;;;;;;;4.28;0.75;;;;;;;;;;5032802;28;20120;-79
2023/06/03 09:50:16;;;;;;;7.13;1.23;;;;;;;;;;5030191;28;20045;-77
2023/06/03 09:52:43;;;;;;;1.90;0.85;;;;;;;;;;5028803;28;20120;-77
2023/06/03 09:55:10;;;;;;;4.93;1.10;;;;;;;;;;5021509;28;20410;-79
2023/06/03 09:57:37;;;;;;;5.10;1.00;;;;;;;;;;5002291;28;20050;-77
2023/06/03 10:00:11;;;;;;;5.18;1.00;;;;;;;;;;5007547;28;20050;-78
2023/06/03 10:02:46;;;;;;;3.03;1.00;;;;;;;;;;5010023;28;20419;-78
2023/06/03 10:05:26;;;;;;;2.45;1.38;;;;;;;;;;4995377;28;20061;-80
2023/06/03 10:07:53;;;;;;;7.95;1.10;;;;;;;;;;5011884;28;20129;-79
2023/06/03 10:10:20;;;;;;;4.55;1.10;;;;;;;;;;5009389;28;20076;-82
2023/06/03 10:12:50;;;;;;;3.50;1.23;;;;;;;;;;5007368;28;20103;-79
2023/06/03 10:15:33;;;;;;;3.35;0.98;;;;;;;;;;5004225;28;20053;-79
2023/06/03 10:17:59;;;;;;;3.05;1.05;;;;;;;;;;4990967;28;20403;-77
2023/06/03 10:20:32;;;;;;;3.47;1.25;;;;;;;;;;4994261;28;20054;-76
2023/06/03 10:23:01;;;;;;;2.05;0.98;;;;;;;;;;5004810;28;20046;-77
2023/06/03 10:25:30;;;;;;;3.28;1.10;;;;;;;;;;5005696;28;20100;-76
2023/06/03 10:27:57;;;;;;;4.50;0.90;;;;;;;;;;5004579;28;20076;-80
2023/06/03 10:30:25;;;;;;;2.88;1.23;;;;;;;;;;5010919;28;20105;-80
2023/06/03 10:32:52;;;;;;;2.50;1.00;;;;;;;;;;5008805;28;20395;-80
2023/06/03 10:35:20;;;;;;;3.53;1.00;;;;;;;;;;5009673;28;20049;-79
2023/06/03 10:37:47;;;;;;;3.45;1.10;;;;;;;;;;4992993;28;20092;-80
2023/06/03 10:40:14;;;;;;;2.13;1.00;;;;;;;;;;4990313;28;20203;-76
2023/06/03 10:42:42;;;;;;;3.00;0.90;;;;;;;;;;5015649;28;20080;-78
2023/06/03 10:45:10;;;;;;;2.72;1.00;;;;;;;;;;5009370;28;20052;-78
2023/06/03 10:47:39;;;;;;;5.55;1.05;;;;;;;;;;5011774;28;20390;-79
2023/06/03 10:50:19;;;;;;;3.42;1.40;;;;;;;;;;5001542;28;20802;-78
2023/06/03 10:53:21;;;;;;;3.00;1.10;;;;;;;;;;5003297;28;20046;-79
2023/06/03 10:56:13;;;;;;;4.70;1.05;;;;;;;;;;4940935;28;20065;-79
2023/06/03 10:58:42;;;;;;;4.82;1.00;;;;;;;;;;4999289;28;20487;-78
2023/06/03 11:01:09;;;;;;;5.47;0.90;;;;;;;;;;4988591;28;20046;-78
2023/06/03 11:03:57;;;;;;;3.10;1.20;;;;;;;;;;4998213;28;20507;-79
2023/06/03 11:06:26;;;;;;;2.20;1.38;;;;;;;;;;4989671;28;20042;-78
2023/06/03 11:09:12;;;;;;;1.92;0.73;;;;;;;;;;4993582;28;20042;-78
2023/06/03 11:11:42;;;;;;;2.60;0.90;;;;;;;;;;5013467;28;20042;-79
2023/06/03 11:14:10;;;;;;;2.85;0.93;;;;;;;;;;5012708;28;20112;-81
2023/06/03 11:16:56;;;;;;;4.68;0.90;;;;;;;;;;5013931;28;20057;-79
2023/06/03 11:19:28;;;;;;;2.47;0.75;;;;;;;;;;5017765;28;20046;-79
2023/06/03 11:21:55;;;;;;;4.43;1.00;;;;;;;;;;5003196;28;20046;-81
2023/06/03 11:24:37;;;;;;;3.67;1.10;;;;;;;;;;4996276;28;20454;-79
2023/06/03 11:27:09;;;;;;;7.13;1.00;;;;;;;;;;4975531;28;20057;-80
2023/06/03 11:29:51;;;;;;;5.93;0.88;;;;;;;;;;4993531;28;20050;-80
2023/06/03 11:32:18;;;;;;;3.50;0.95;;;;;;;;;;4995686;28;20074;-80
2023/06/03 11:34:46;;;;;;;6.63;1.00;;;;;;;;;;4995683;28;20050;-80
2023/06/03 11:37:14;;;;;;;7.28;1.20;;;;;;;;;;4994756;28;20057;-81
2023/06/03 11:40:00;;;;;;;4.47;0.93;;;;;;;;;;4996650;28;20550;-80
2023/06/03 11:42:28;;;;;;;2.47;1.10;;;;;;;;;;5010208;28;20111;-78
2023/06/03 11:45:14;;;;;;;2.03;1.10;;;;;;;;;;5009815;28;20077;-77
2023/06/03 11:47:57;;;;;;;2.60;0.90;;;;;;;;;;5009399;28;20375;-77
2023/06/03 11:50:29;;;;;;;3.15;0.82;;;;;;;;;;5010954;28;20048;-77
2023/06/03 11:52:56;;;;;;;1.70;0.88;;;;;;;;;;4996397;28;20578;-79
2023/06/03 11:55:23;;;;;;;2.67;1.00;;;;;;;;;;5006441;28;20588;-78
2023/06/03 11:57:50;;;;;;;3.60;1.10;;;;;;;;;;5008996;28;20081;-77
2023/06/03 12:00:17;;;;;;;6.68;1.10;;;;;;;;;;5008856;28;20053;-79
2023/06/03 12:02:48;;;;;;;3.22;1.10;;;;;;;;;;5008617;28;20042;-77
2023/06/03 12:05:15;;;;;;;5.07;1.27;;;;;;;;;;4999612;28;20057;-77
2023/06/03 12:07:52;;;;;;;3.03;0.90;;;;;;;;;;4986437;28;20105;-79
2023/06/03 12:10:19;;;;;;;4.65;0.95;;;;;;;;;;4985823;28;20050;-77
2023/06/03 12:12:52;;;;;;;2.80;1.20;;;;;;;;;;4999793;28;20225;-76
2023/06/03 12:15:20;;;;;;;1.73;1.03;;;;;;;;;;5000837;28;20054;-77
2023/06/03 12:17:47;;;;;;;2.97;0.80;;;;;;;;;;5014707;28;20046;-77
2023/06/03 12:20:27;;;;;;;3.72;1.10;;;;;;;;;;5018385;28;20481;-77
2023/06/03 12:23:03;;;;;;;1.25;0.98;;;;;;;;;;5007040;28;20108;-76
2023/06/03 12:25:33;;;;;;;1.88;1.00;;;;;;;;;;4998635;28;20045;-78
2023/06/03 12:28:19;;;;;;;3.15;1.20;;;;;;;;;;5005650;28;20599;-78
2023/06/03 12:30:46;;;;;;;2.55;0.95;;;;;;;;;;4996706;28;20045;-75
2023/06/03 12:33:12;;;;;;;2.05;1.05;;;;;;;;;;5006351;28;20047;-78
2023/06/03 12:35:51;;;;;;;3.35;0.82;;;;;;;;;;5007842;28;20046;-78
2023/06/03 12:38:18;;;;;;;5.00;1.00;;;;;;;;;;5009104;28;20038;-78
2023/06/03 12:40:45;;;;;;;4.60;1.05;;;;;;;;;;5010666;28;20092;-78
2023/06/03 12:43:18;;;;;;;4.10;1.10;;;;;;;;;;5012507;28;20049;-78
2023/06/03 12:45:47;;;;;;;8.20;1.30;;;;;;;;;;5011960;28;20126;-79
2023/06/03 12:48:31;;;;;;;3.40;1.10;;;;;;;;;;5013544;28;20117;-79
2023/06/03 12:50:59;;;;;;;2.85;0.85;;;;;;;;;;4998568;28;20045;-79
2023/06/03 12:53:26;;;;;;;3.35;1.13;;;;;;;;;;5014345;28;20632;-80
2023/06/03 12:55:53;;;;;;;10.07;1.20;;;;;;;;;;5014916;28;20041;-78
2023/06/03 12:58:19;;;;;;;5.32;1.23;;;;;;;;;;5012850;28;20042;-79
2023/06/03 13:00:46;;;;;;;4.53;1.30;;;;;;;;;;4996596;28;20240;-78
2023/06/03 13:03:13;;;;;;;3.75;1.20;;;;;;;;;;5014241;28;20042;-78
2023/06/03 13:05:40;;;;;;;5.38;1.02;;;;;;;;;;5015590;28;20114;-80
2023/06/03 13:08:09;;;;;;;3.30;1.02;;;;;;;;;;5013425;28;20141;-79
2023/06/03 13:10:36;;;;;;;6.10;1.10;;;;;;;;;;5018512;28;20053;-78
2023/06/03 13:13:03;;;;;;;10.60;1.45;;;;;;;;;;5018100;28;20108;-79
2023/06/03 13:15:29;;;;;;;5.95;1.13;;;;;;;;;;5012904;28;20621;-78
2023/06/03 13:17:56;;;;;;;2.88;1.30;;;;;;;;;;5010781;28;20054;-79
2023/06/03 13:20:23;;;;;;;6.80;1.00;;;;;;;;;;4994855;28;20053;-81
2023/06/03 13:22:50;;;;;;;3.70;1.15;;;;;;;;;;5007637;28;20060;-80
2023/06/03 13:25:16;;;;;;;4.15;1.08;;;;;;;;;;4994915;28;20085;-80
2023/06/03 13:27:43;;;;;;;5.28;1.05;;;;;;;;;;5004650;28;20038;-79
2023/06/03 13:30:11;;;;;;;5.28;1.10;;;;;;;;;;5003357;28;20105;-80
2023/06/03 13:32:38;;;;;;;6.28;1.13;;;;;;;;;;4990456;28;20046;-78
2023/06/03 13:35:05;;;;;;;5.05;1.10;;;;;;;;;;4990790;28;20050;-79
2023/06/03 13:37:32;;;;;;;11.73;1.30;;;;;;;;;;5006837;28;20065;-81
2023/06/03 13:39:59;;;;;;;1.83;0.98;;;;;;;;;;5006072;28;20042;-79
2023/06/03 13:42:26;;;;;;;3.17;1.10;;;;;;;;;;4988711;28;20058;-78
2023/06/03 13:44:52;;;;;;;3.85;1.13;;;;;;;;;;4989490;28;20571;-78
2023/06/03 13:47:19;;;;;;;8.52;1.20;;;;;;;;;;4989281;28;20076;-78
2023/06/03 13:49:46;;;;;;;4.03;1.17;;;;;;;;;;5006214;28;20058;-79
2023/06/03 13:52:12;;;;;;;4.90;1.05;;;;;;;;;;5006829;28;20580;-79
2023/06/03 13:54:40;;;;;;;7.72;1.00;;;;;;;;;;4990773;28;20514;-79
2023/06/03 13:57:08;;;;;;;7.97;1.02;;;;;;;;;;5005892;28;20050;-79
2023/06/03 13:59:35;;;;;;;6.85;0.80;;;;;;;;;;5011600;28;20081;-79
2023/06/03 14:02:02;;;;;;;9.38;1.00;;;;;;;;;;4997280;28;20084;-79
2023/06/03 14:04:29;;;;;;;4.47;0.95;;;;;;;;;;5010046;28;20042;-78
2023/06/03 14:06:56;;;;;;;5.22;0.98;;;;;;;;;;5011167;28;20045;-78
2023/06/03 14:09:23;;;;;;;3.88;1.23;;;;;;;;;;5010022;28;20057;-78
2023/06/03 14:11:50;;;;;;;2.65;1.00;;;;;;;;;;4994714;28;20034;-80
2023/06/03 14:14:17;;;;;;;2.63;1.00;;;;;;;;;;4994245;28;20073;-80
2023/06/03 14:16:44;;;;;;;1.98;1.10;;;;;;;;;;5011647;28;20466;-78
2023/06/03 14:19:11;;;;;;;2.20;0.90;;;;;;;;;;5011689;28;20042;-79
2023/06/03 14:21:38;;;;;;;2.58;0.93;;;;;;;;;;4993089;28;20044;-80
2023/06/03 14:24:05;;;;;;;5.78;1.10;;;;;;;;;;5012895;28;20068;-79
2023/06/03 14:26:35;;;;;;;9.07;1.00;;;;;;;;;;5011370;28;20061;-80
2023/06/03 14:29:04;;;;;;;1.73;0.90;;;;;;;;;;5029504;28;20073;-80
2023/06/03 14:31:31;;;;;;;2.75;0.88;;;;;;;;;;5029033;28;20050;-79
2023/06/03 14:34:00;;;;;;;5.28;1.13;;;;;;;;;;5020951;28;20041;-78
2023/06/03 14:36:27;;;;;;;2.50;1.00;;;;;;;;;;5021454;28;24627;-80
2023/06/03 14:38:53;;;;;;;3.97;0.93;;;;;;;;;;5006389;28;20042;-80
2023/06/03 14:41:20;;;;;;;4.45;1.20;;;;;;;;;;4997494;28;20080;-77
2023/06/03 14:43:47;;;;;;;8.00;1.35;;;;;;;;;;5000606;28;20053;-80
2023/06/03 14:46:14;;;;;;;5.40;2.10;;;;;;;;;;4999218;28;20068;-79
2023/06/03 14:48:45;;;;;;;3.42;1.15;;;;;;;;;;4992073;28;20577;-79
2023/06/03 14:51:12;;;;;;;5.18;1.70;;;;;;;;;;4974526;28;20077;-77
2023/06/03 14:53:39;;;;;;;5.45;1.00;;;;;;;;;;4996224;28;20488;-79
2023/06/03 14:56:05;;;;;;;3.85;1.50;;;;;;;;;;5002016;28;20041;-80